createdAt,value
2023-08-23T00:01:46.472Z,31.50
2023-08-23T00:04:14.901Z,31.50
2023-08-23T00:06:43.236Z,31.50
2023-08-23T00:09:11.510Z,31.40
2023-08-23T00:11:40.034Z,31.50
2023-08-23T00:14:08.514Z,31.50
2023-08-23T00:16:37.141Z,31.50
2023-08-23T00:19:06.856Z,31.40
2023-08-23T00:21:35.176Z,31.40
2023-08-23T00:24:03.596Z,31.50
2023-08-23T00:26:33.454Z,31.40
2023-08-23T00:29:01.752Z,31.40
2023-08-23T00:31:30.121Z,31.40
2023-08-23T00:33:58.505Z,31.40
2023-08-23T00:36:28.272Z,31.40
2023-08-23T00:38:57.099Z,31.40
2023-08-23T00:41:25.659Z,31.40
2023-08-23T00:43:54.253Z,31.30
2023-08-23T00:46:23.530Z,31.40
2023-08-23T00:48:52.439Z,31.40
2023-08-23T00:51:21.260Z,31.30
2023-08-23T00:53:51.069Z,31.40
2023-08-23T00:56:19.438Z,31.30
2023-08-23T00:58:47.895Z,31.30
2023-08-23T01:01:16.231Z,31.40
2023-08-23T01:03:44.571Z,31.30
2023-08-23T01:06:27.094Z,31.30
2023-08-23T01:09:05.707Z,31.30
2023-08-23T01:11:40.775Z,31.30
2023-08-23T01:14:17.837Z,31.30
2023-08-23T01:16:49.283Z,31.30
2023-08-23T01:19:39.999Z,31.30
2023-08-23T01:22:10.574Z,31.30
2023-08-23T01:24:40.528Z,31.30
2023-08-23T01:27:09.255Z,31.20
2023-08-23T01:29:37.620Z,31.20
2023-08-23T01:32:15.194Z,31.20
2023-08-23T01:34:51.145Z,31.20
2023-08-23T01:37:22.540Z,31.20
2023-08-23T01:39:54.693Z,31.10
2023-08-23T01:42:24.417Z,31.10
2023-08-23T01:44:53.268Z,31.10
2023-08-23T01:47:21.554Z,31.10
2023-08-23T01:49:50.090Z,31.10
2023-08-23T01:52:18.712Z,31.00
2023-08-23T01:54:46.995Z,31.00
2023-08-23T01:57:16.790Z,31.00
2023-08-23T01:59:47.064Z,31.00
2023-08-23T02:02:15.437Z,31.00
2023-08-23T02:04:44.133Z,30.90
2023-08-23T02:07:12.545Z,30.90
2023-08-23T02:09:40.834Z,30.90
2023-08-23T02:12:09.484Z,30.90
2023-08-23T02:14:39.476Z,30.90
2023-08-23T02:17:07.866Z,30.90
2023-08-23T02:19:36.217Z,30.90
2023-08-23T02:22:04.890Z,30.90
2023-08-23T02:24:33.195Z,30.90
2023-08-23T02:27:01.996Z,30.90
2023-08-23T02:29:30.303Z,30.90
2023-08-23T02:31:59.994Z,31.00
2023-08-23T02:34:28.387Z,30.90
2023-08-23T02:36:57.156Z,30.90
2023-08-23T02:39:25.484Z,30.90
2023-08-23T02:41:53.918Z,30.90
2023-08-23T02:44:22.473Z,31.00
2023-08-23T02:46:50.830Z,30.90
2023-08-23T02:49:20.695Z,31.00
2023-08-23T02:51:49.053Z,30.90
2023-08-23T02:54:17.401Z,30.90
2023-08-23T02:56:45.973Z,30.90
2023-08-23T02:59:14.453Z,30.90
2023-08-23T03:01:42.864Z,30.80
2023-08-23T03:04:11.279Z,30.90
2023-08-23T03:06:41.022Z,30.80
2023-08-23T03:09:09.355Z,30.80
2023-08-23T03:11:37.748Z,30.80
2023-08-23T03:14:06.176Z,30.80
2023-08-23T03:16:34.828Z,30.80
2023-08-23T03:19:03.147Z,30.80
2023-08-23T03:21:31.649Z,30.80
2023-08-23T03:24:01.381Z,30.80
2023-08-23T03:26:29.635Z,30.90
2023-08-23T03:28:58.037Z,30.80
2023-08-23T03:31:26.430Z,30.90
2023-08-23T03:33:54.788Z,30.90
2023-08-23T03:36:24.125Z,30.80
2023-08-23T03:38:52.478Z,30.80
2023-08-23T03:41:22.206Z,30.80
2023-08-23T03:43:50.544Z,30.80
2023-08-23T03:46:19.001Z,30.70
2023-08-23T03:48:47.417Z,30.70
2023-08-23T03:51:15.788Z,30.60
2023-08-23T03:53:44.796Z,30.60
2023-08-23T03:56:13.167Z,30.60
2023-08-23T03:58:42.953Z,30.60
2023-08-23T04:01:11.318Z,30.60
2023-08-23T04:03:39.651Z,30.50
2023-08-23T04:06:08.299Z,30.50
2023-08-23T04:08:36.627Z,30.50
2023-08-23T04:11:05.062Z,30.50
2023-08-23T04:13:33.432Z,30.50
2023-08-23T04:16:03.190Z,30.40
2023-08-23T04:18:31.595Z,30.40
2023-08-23T04:21:03.945Z,30.40
2023-08-23T04:23:32.533Z,30.40
2023-08-23T04:26:00.822Z,30.40
2023-08-23T04:28:29.374Z,30.30
2023-08-23T04:31:03.674Z,30.30
2023-08-23T04:33:31.964Z,30.30
2023-08-23T04:36:00.270Z,30.20
2023-08-23T04:38:28.605Z,30.20
2023-08-23T04:41:01.712Z,30.20
2023-08-23T04:43:30.338Z,30.20
2023-08-23T04:46:00.002Z,30.20
2023-08-23T04:48:29.877Z,30.10
2023-08-23T04:51:00.084Z,30.10
2023-08-23T04:53:28.559Z,30.10
2023-08-23T04:55:59.424Z,30.10
2023-08-23T04:58:31.410Z,30.10
2023-08-23T05:01:04.943Z,30.00
2023-08-23T05:03:35.566Z,30.00
2023-08-23T05:06:04.861Z,30.00
2023-08-23T05:08:36.855Z,30.00
2023-08-23T05:11:05.270Z,30.00
2023-08-23T05:13:33.573Z,30.00
2023-08-23T05:16:01.915Z,29.90
2023-08-23T05:18:30.262Z,29.90
2023-08-23T05:21:01.616Z,30.00
2023-08-23T05:23:29.992Z,29.90
2023-08-23T05:25:59.246Z,29.90
2023-08-23T05:28:28.152Z,29.90
2023-08-23T05:30:56.791Z,29.90
2023-08-23T05:33:25.147Z,29.90
2023-08-23T05:35:53.558Z,29.80
2023-08-23T05:38:24.584Z,29.80
2023-08-23T05:40:53.115Z,29.80
2023-08-23T05:43:21.477Z,29.80
2023-08-23T05:45:51.979Z,29.80
2023-08-23T05:48:20.276Z,29.80
2023-08-23T05:50:49.005Z,29.70
2023-08-23T05:53:20.280Z,29.70
2023-08-23T05:55:51.156Z,29.70
2023-08-23T05:58:20.262Z,29.70
2023-08-23T06:00:49.646Z,29.70
2023-08-23T06:03:18.166Z,29.80
2023-08-23T06:05:47.170Z,29.70
2023-08-23T06:08:15.603Z,29.70
2023-08-23T06:10:43.904Z,29.70
2023-08-23T06:13:13.583Z,29.70
2023-08-23T06:15:42.230Z,29.80
2023-08-23T06:18:10.578Z,29.80
2023-08-23T06:20:40.288Z,29.80
2023-08-23T06:23:08.696Z,29.80
2023-08-23T06:25:37.229Z,29.80
2023-08-23T06:28:05.984Z,29.90
2023-08-23T06:30:38.100Z,29.90
2023-08-23T06:33:09.390Z,29.80
2023-08-23T06:35:37.798Z,29.90
2023-08-23T06:38:06.627Z,29.90
2023-08-23T06:40:35.257Z,29.90
2023-08-23T06:43:05.063Z,29.90
2023-08-23T06:45:33.441Z,29.90
2023-08-23T06:48:03.408Z,30.00
2023-08-23T06:50:31.791Z,30.00
2023-08-23T06:53:00.142Z,30.00
2023-08-23T06:55:28.539Z,29.90
2023-08-23T06:57:57.180Z,30.00
2023-08-23T07:00:26.140Z,30.00
2023-08-23T07:02:54.567Z,30.00
2023-08-23T07:05:25.391Z,30.00
2023-08-23T07:07:53.708Z,30.00
2023-08-23T07:10:28.097Z,30.10
2023-08-23T07:12:57.837Z,30.10
2023-08-23T07:15:26.346Z,30.10
2023-08-23T07:17:54.742Z,30.10
2023-08-23T07:20:24.614Z,30.10
2023-08-23T07:22:52.998Z,30.10
2023-08-23T07:25:21.379Z,30.10
2023-08-23T07:27:49.951Z,30.10
2023-08-23T07:30:19.195Z,30.20
2023-08-23T07:32:47.530Z,30.20
2023-08-23T07:35:15.852Z,30.20
2023-08-23T07:37:46.017Z,30.20
2023-08-23T07:40:14.921Z,30.20
2023-08-23T07:42:43.745Z,30.20
2023-08-23T07:45:12.371Z,30.20
2023-08-23T07:47:40.790Z,30.30
2023-08-23T07:50:10.436Z,30.30
2023-08-23T07:52:38.690Z,30.30
2023-08-23T07:55:09.654Z,30.30
2023-08-23T07:57:38.093Z,30.30
2023-08-23T08:00:08.180Z,30.30
2023-08-23T08:02:38.862Z,30.30
2023-08-23T08:05:09.603Z,30.30
2023-08-23T08:08:07.042Z,30.40
2023-08-23T08:10:28.002Z,30.40
2023-08-23T08:12:56.295Z,30.40
2023-08-23T08:15:24.757Z,30.40
2023-08-23T08:17:54.070Z,30.40
2023-08-23T08:20:24.621Z,30.40
2023-08-23T08:22:52.957Z,30.40
2023-08-23T08:25:21.735Z,30.40
2023-08-23T08:27:52.889Z,30.50
2023-08-23T08:30:21.847Z,30.40
2023-08-23T08:32:50.218Z,30.50
2023-08-23T08:35:18.722Z,30.50
2023-08-23T08:37:47.180Z,30.50
2023-08-23T08:40:15.805Z,30.50
2023-08-23T08:42:44.112Z,30.60
2023-08-23T08:45:14.002Z,30.60
2023-08-23T08:47:43.288Z,30.60
2023-08-23T08:50:12.072Z,30.60
2023-08-23T08:52:43.379Z,30.70
2023-08-23T08:55:13.369Z,30.70
2023-08-23T08:57:42.766Z,30.70
2023-08-23T09:00:14.416Z,30.70
2023-08-23T09:02:43.977Z,30.70
2023-08-23T09:05:12.518Z,30.70
2023-08-23T09:07:42.625Z,30.80
2023-08-23T09:10:12.116Z,30.80
2023-08-23T09:12:40.548Z,30.80
2023-08-23T09:15:09.882Z,30.80
2023-08-23T09:17:39.580Z,30.90
2023-08-23T09:20:09.138Z,30.90
2023-08-23T09:22:37.973Z,30.90
2023-08-23T09:25:09.531Z,30.90
2023-08-23T09:27:39.370Z,30.90
2023-08-23T09:30:09.064Z,30.90
2023-08-23T09:32:37.604Z,30.90
2023-08-23T09:35:17.757Z,31.00
2023-08-23T09:37:48.141Z,31.10
2023-08-23T09:40:21.171Z,31.00
2023-08-23T09:42:50.299Z,31.00
2023-08-23T09:45:20.679Z,31.10
2023-08-23T09:47:54.509Z,31.10
2023-08-23T09:50:25.549Z,31.10
2023-08-23T09:52:56.077Z,31.20
2023-08-23T09:55:26.134Z,31.20
2023-08-23T09:57:55.002Z,31.20
2023-08-23T10:00:24.413Z,31.20
2023-08-23T10:02:54.749Z,31.20
2023-08-23T10:05:28.235Z,31.30
2023-08-23T10:07:58.677Z,31.30
2023-08-23T10:10:27.956Z,31.30
2023-08-23T10:13:01.351Z,31.30
2023-08-23T10:15:34.269Z,31.40
2023-08-23T10:18:04.924Z,31.40
2023-08-23T10:20:38.147Z,31.50
2023-08-23T10:23:14.942Z,31.50
2023-08-23T10:25:44.566Z,31.50
2023-08-23T10:28:16.239Z,31.50
2023-08-23T10:30:45.797Z,31.60
2023-08-23T10:33:15.547Z,31.60
2023-08-23T10:35:46.602Z,31.60
2023-08-23T10:38:15.634Z,31.60
2023-08-23T10:40:47.343Z,31.70
2023-08-23T10:43:16.516Z,31.70
2023-08-23T10:45:57.388Z,31.80
2023-08-23T10:48:26.365Z,31.80
2023-08-23T10:50:56.269Z,31.80
2023-08-23T10:53:28.479Z,31.90
2023-08-23T10:55:57.978Z,31.90
2023-08-23T10:58:26.292Z,32.00
2023-08-23T11:00:55.861Z,32.00
2023-08-23T11:03:25.494Z,32.00
2023-08-23T11:05:56.092Z,32.10
2023-08-23T11:08:24.978Z,32.10
2023-08-23T11:10:53.548Z,32.20
2023-08-23T11:13:21.900Z,32.20
2023-08-23T11:15:50.662Z,32.20
2023-08-23T11:18:19.081Z,32.30
2023-08-23T11:20:48.389Z,32.30
2023-08-23T11:23:18.169Z,32.40
2023-08-23T11:25:46.525Z,32.50
2023-08-23T11:28:18.189Z,32.50
2023-08-23T11:30:47.902Z,32.50
2023-08-23T11:33:16.748Z,32.60
2023-08-23T11:35:45.203Z,32.70
2023-08-23T11:38:13.502Z,32.70
2023-08-23T11:40:47.272Z,32.80
2023-08-23T11:43:22.900Z,32.90
2023-08-23T11:45:53.609Z,33.00
2023-08-23T11:48:23.830Z,33.10
2023-08-23T11:50:53.121Z,33.20
2023-08-23T11:53:21.547Z,33.20
2023-08-23T11:55:52.897Z,33.30
2023-08-23T11:58:21.251Z,33.50
2023-08-23T12:00:50.319Z,33.60
2023-08-23T12:03:19.027Z,33.70
2023-08-23T12:05:47.702Z,33.80
2023-08-23T12:08:15.997Z,33.90
2023-08-23T12:10:44.813Z,34.10
2023-08-23T12:13:14.519Z,34.20
2023-08-23T12:15:42.827Z,34.30
2023-08-23T12:18:11.357Z,34.40
2023-08-23T12:20:39.765Z,34.50
2023-08-23T12:23:08.054Z,34.60
2023-08-23T12:25:36.452Z,34.70
2023-08-23T12:28:04.963Z,34.90
2023-08-23T12:30:34.999Z,35.00
2023-08-23T12:33:03.311Z,35.10
2023-08-23T12:35:32.178Z,35.20
2023-08-23T12:38:00.490Z,35.30
2023-08-23T12:40:28.723Z,35.60
2023-08-23T12:42:57.348Z,35.70
2023-08-23T12:45:25.733Z,35.90
2023-08-23T12:47:56.715Z,35.90
2023-08-23T12:50:27.430Z,36.00
2023-08-23T12:52:55.780Z,36.10
2023-08-23T12:55:24.649Z,36.20
2023-08-23T12:57:52.981Z,36.20
2023-08-23T13:02:54.853Z,36.40
2023-08-23T13:05:23.248Z,36.40
2023-08-23T13:07:51.738Z,36.60
2023-08-23T13:10:20.829Z,36.60
2023-08-23T13:12:49.161Z,36.70
2023-08-23T13:15:18.529Z,36.70
2023-08-23T13:17:48.084Z,36.70
2023-08-23T13:20:19.433Z,36.80
2023-08-23T13:22:47.969Z,36.90
2023-08-23T13:25:16.498Z,36.80
2023-08-23T13:27:44.843Z,36.90
2023-08-23T13:30:13.609Z,36.90
2023-08-23T13:32:42.716Z,36.90
2023-08-23T13:35:11.112Z,36.90
2023-08-23T13:37:40.835Z,37.00
2023-08-23T13:40:11.268Z,36.90
2023-08-23T13:42:40.983Z,37.00
2023-08-23T13:45:11.120Z,37.00
2023-08-23T13:47:39.965Z,37.00
2023-08-23T13:50:10.483Z,37.00
2023-08-23T13:52:40.180Z,37.00
2023-08-23T13:55:09.617Z,37.00
2023-08-23T13:57:38.945Z,36.90
2023-08-23T14:00:09.766Z,37.00
2023-08-23T14:02:38.318Z,37.00
2023-08-23T14:05:07.535Z,37.00
2023-08-23T14:07:36.470Z,36.90
2023-08-23T14:10:07.457Z,36.90
2023-08-23T14:12:35.714Z,36.90
2023-08-23T14:15:04.548Z,36.90
2023-08-23T14:17:32.990Z,36.90
2023-08-23T14:20:01.399Z,36.80
2023-08-23T14:22:29.923Z,36.90
2023-08-23T14:24:58.169Z,36.80
2023-08-23T14:27:28.635Z,36.80
2023-08-23T14:29:58.351Z,36.70
2023-08-23T14:32:27.887Z,36.70
2023-08-23T14:34:56.185Z,36.70
2023-08-23T14:37:24.536Z,36.70
2023-08-23T14:39:52.773Z,36.70
2023-08-23T14:42:21.091Z,36.70
2023-08-23T14:44:50.737Z,36.70
2023-08-23T14:47:19.090Z,36.60
2023-08-23T14:49:47.482Z,36.70
2023-08-23T14:52:18.953Z,36.70
2023-08-23T14:54:49.490Z,36.60
2023-08-23T14:57:17.817Z,36.60
2023-08-23T14:59:48.263Z,36.60
2023-08-23T15:02:18.182Z,36.60
2023-08-23T15:04:46.850Z,36.50
2023-08-23T15:07:15.516Z,36.50
2023-08-23T15:09:43.815Z,36.50
2023-08-23T15:12:12.043Z,36.50
2023-08-23T15:14:40.286Z,36.50
2023-08-23T15:17:08.771Z,36.50
2023-08-23T15:19:38.897Z,36.40
2023-08-23T15:22:07.157Z,36.40
2023-08-23T15:24:35.629Z,36.40
2023-08-23T15:27:04.351Z,36.40
2023-08-23T15:29:47.047Z,36.40
2023-08-23T15:32:21.234Z,36.40
2023-08-23T15:34:55.025Z,36.30
2023-08-23T15:37:24.785Z,36.30
2023-08-23T15:39:53.059Z,36.30
2023-08-23T15:42:22.972Z,36.30
2023-08-23T15:44:51.403Z,36.30
2023-08-23T15:47:21.241Z,36.20
2023-08-23T15:49:50.318Z,36.20
2023-08-23T15:52:20.008Z,36.20
2023-08-23T15:54:50.282Z,36.20
2023-08-23T15:57:20.417Z,36.20
2023-08-23T15:59:49.057Z,36.10
2023-08-23T16:02:17.617Z,36.10
2023-08-23T16:04:46.035Z,36.10
2023-08-23T16:07:14.596Z,36.10
2023-08-23T16:09:44.259Z,36.00
2023-08-23T16:12:13.133Z,36.00
2023-08-23T16:14:42.410Z,36.00
2023-08-23T16:17:11.056Z,36.00
2023-08-23T16:19:39.805Z,36.00
2023-08-23T16:22:08.091Z,36.00
2023-08-23T16:24:36.383Z,36.00
2023-08-23T16:27:06.353Z,36.00
2023-08-23T16:29:34.821Z,35.90
2023-08-23T16:32:03.250Z,35.90
2023-08-23T16:34:31.539Z,35.90
2023-08-23T16:36:59.891Z,35.90
2023-08-23T16:39:28.908Z,35.90
2023-08-23T16:41:57.204Z,35.80
2023-08-23T16:44:26.926Z,35.80
2023-08-23T16:46:55.230Z,35.70
2023-08-23T16:49:23.541Z,35.80
2023-08-23T16:51:53.583Z,35.80
2023-08-23T16:54:21.924Z,35.80
2023-08-23T16:56:50.187Z,35.70
2023-08-23T16:59:18.509Z,35.70
2023-08-23T17:01:48.231Z,35.70
2023-08-23T17:04:17.015Z,35.70
2023-08-23T17:06:45.360Z,35.70
2023-08-23T17:09:13.646Z,35.60
2023-08-23T17:11:41.928Z,35.60
2023-08-23T17:14:10.215Z,35.60
2023-08-23T17:16:38.537Z,35.60
2023-08-23T17:19:08.207Z,35.60
2023-08-23T17:21:36.838Z,35.50
2023-08-23T17:24:05.754Z,35.50
2023-08-23T17:26:34.139Z,35.50
2023-08-23T17:29:02.544Z,35.50
2023-08-23T17:31:30.887Z,35.50
2023-08-23T17:33:59.203Z,35.40
2023-08-23T17:36:28.974Z,35.40
2023-08-23T17:38:57.305Z,35.40
2023-08-23T17:41:25.611Z,35.40
2023-08-23T17:43:55.080Z,35.30
2023-08-23T17:46:37.601Z,35.30
2023-08-23T17:49:06.459Z,35.30
2023-08-23T17:51:37.779Z,35.20
2023-08-23T17:54:07.562Z,35.20
2023-08-23T17:56:36.096Z,35.20
2023-08-23T17:59:04.529Z,35.20
2023-08-23T18:01:33.048Z,35.10
2023-08-23T18:04:01.320Z,35.10
2023-08-23T18:06:30.029Z,35.10
2023-08-23T18:08:59.827Z,35.00
2023-08-23T18:11:28.268Z,35.00
2023-08-23T18:13:56.997Z,35.00
2023-08-23T18:16:25.434Z,35.00
2023-08-23T18:18:53.870Z,35.00
2023-08-23T18:21:23.932Z,34.90
2023-08-23T18:23:56.142Z,34.90
2023-08-23T18:26:25.977Z,34.80
2023-08-23T18:28:56.405Z,34.80
2023-08-23T18:31:24.896Z,34.80
2023-08-23T18:33:53.289Z,34.80
2023-08-23T18:36:21.534Z,34.70
2023-08-23T18:38:49.831Z,34.70
2023-08-23T18:41:18.432Z,34.70
2023-08-23T18:43:48.401Z,34.60
2023-08-23T18:46:17.187Z,34.60
2023-08-23T18:48:45.588Z,34.60
2023-08-23T18:51:14.112Z,34.50
2023-08-23T18:53:42.605Z,34.50
2023-08-23T18:56:10.970Z,34.50
2023-08-23T18:58:39.274Z,34.50
2023-08-23T19:01:09.213Z,34.50
2023-08-23T19:03:38.827Z,34.40
2023-08-23T19:06:07.361Z,34.40
2023-08-23T19:08:35.770Z,34.40
2023-08-23T19:11:04.201Z,34.30
2023-08-23T19:13:32.645Z,34.30
2023-08-23T19:16:01.219Z,34.30
2023-08-23T19:18:31.044Z,34.30
2023-08-23T19:20:59.608Z,34.30
2023-08-23T19:23:30.027Z,34.30
2023-08-23T19:25:59.529Z,34.20
2023-08-23T19:28:27.840Z,34.20
2023-08-23T19:30:56.249Z,34.20
2023-08-23T19:33:24.562Z,34.20
2023-08-23T19:35:54.209Z,34.10
2023-08-23T19:38:22.600Z,34.10
2023-08-23T19:40:51.976Z,34.10
2023-08-23T19:43:20.339Z,34.10
2023-08-23T19:45:48.900Z,34.10
2023-08-23T19:50:49.138Z,34.00
2023-08-23T19:53:19.599Z,34.00
2023-08-23T19:55:48.046Z,33.90
2023-08-23T19:58:20.070Z,33.90
2023-08-23T20:00:48.522Z,33.90
2023-08-23T20:03:16.959Z,33.90
2023-08-23T20:05:45.715Z,33.80
2023-08-23T20:08:14.038Z,33.80
2023-08-23T20:10:43.668Z,33.80
2023-08-23T20:13:12.185Z,33.80
2023-08-23T20:15:45.006Z,33.80
2023-08-23T20:18:15.393Z,33.70
2023-08-23T20:20:44.010Z,33.70
2023-08-23T20:23:12.528Z,33.70
2023-08-23T20:25:41.634Z,33.70
2023-08-23T20:28:11.515Z,33.60
2023-08-23T20:30:41.772Z,33.60
2023-08-23T20:33:10.240Z,33.60
2023-08-23T20:35:38.591Z,33.60
2023-08-23T20:38:07.077Z,33.60
2023-08-23T20:40:35.924Z,33.50
2023-08-23T20:43:05.877Z,33.50
2023-08-23T20:45:39.470Z,33.50
2023-08-23T20:48:09.117Z,33.50
2023-08-23T20:50:37.458Z,33.40
2023-08-23T20:53:06.031Z,33.40
2023-08-23T20:55:34.627Z,33.40
2023-08-23T20:58:02.999Z,33.40
2023-08-23T21:00:31.348Z,33.40
2023-08-23T21:03:01.167Z,33.40
2023-08-23T21:05:31.049Z,33.40
2023-08-23T21:07:59.371Z,33.40
2023-08-23T21:10:28.020Z,33.40
2023-08-23T21:12:56.278Z,33.40
2023-08-23T21:15:24.560Z,33.30
2023-08-23T21:17:53.170Z,33.30
2023-08-23T21:20:23.264Z,33.20
2023-08-23T21:22:51.561Z,33.20
2023-08-23T21:25:20.506Z,33.20
2023-08-23T21:27:49.347Z,33.20
2023-08-23T21:30:17.981Z,33.20
2023-08-23T21:32:46.716Z,33.20
2023-08-23T21:35:15.278Z,33.10
2023-08-23T21:37:46.447Z,33.10
2023-08-23T21:40:15.124Z,33.10
2023-08-23T21:42:43.707Z,33.10
2023-08-23T21:45:12.702Z,33.10
2023-08-23T21:47:43.257Z,33.00
2023-08-23T21:50:12.194Z,33.00
2023-08-23T21:52:40.543Z,33.00
2023-08-23T21:55:10.887Z,33.00
2023-08-23T21:57:39.587Z,33.00
2023-08-23T22:00:13.084Z,32.90
2023-08-23T22:02:41.606Z,32.90
2023-08-23T22:05:10.555Z,32.90
2023-08-23T22:07:38.887Z,32.80
2023-08-23T22:10:10.412Z,32.80
2023-08-23T22:12:38.719Z,32.80
2023-08-23T22:15:08.947Z,32.80
2023-08-23T22:17:37.844Z,32.70
2023-08-23T22:20:07.776Z,32.70
2023-08-23T22:22:36.148Z,32.70
2023-08-23T22:25:04.735Z,32.70
2023-08-23T22:27:34.571Z,32.70
2023-08-23T22:30:02.842Z,32.60
2023-08-23T22:32:31.229Z,32.60
2023-08-23T22:34:59.883Z,32.60
2023-08-23T22:37:28.446Z,32.60
2023-08-23T22:39:56.753Z,32.50
2023-08-23T22:42:28.900Z,32.50
2023-08-23T22:44:58.961Z,32.50
2023-08-23T22:47:27.363Z,32.50
2023-08-23T22:49:55.700Z,32.50
2023-08-23T22:52:24.211Z,32.50
2023-08-23T22:54:52.570Z,32.50
2023-08-23T22:57:21.021Z,32.40
2023-08-23T22:59:49.437Z,32.40
2023-08-23T23:02:20.293Z,32.40
2023-08-23T23:04:49.884Z,32.40
2023-08-23T23:07:18.316Z,32.40
2023-08-23T23:09:46.761Z,32.30
2023-08-23T23:12:15.106Z,32.30
2023-08-23T23:14:43.644Z,32.20
2023-08-23T23:17:11.971Z,32.20
2023-08-23T23:19:41.672Z,32.20
2023-08-23T23:22:09.993Z,32.20
2023-08-23T23:24:40.439Z,32.20
2023-08-23T23:27:09.257Z,32.20
2023-08-23T23:29:37.641Z,32.20
2023-08-23T23:32:06.633Z,32.10
2023-08-23T23:34:34.972Z,32.10
2023-08-23T23:37:04.719Z,32.10
2023-08-23T23:39:33.095Z,32.00
2023-08-23T23:42:01.546Z,32.00
2023-08-23T23:44:29.887Z,32.00
2023-08-23T23:46:59.262Z,31.90
2023-08-23T23:49:27.682Z,31.90
2023-08-23T23:51:56.027Z,31.90
2023-08-23T23:54:25.765Z,31.90
2023-08-23T23:56:54.125Z,31.90
2023-08-23T23:59:22.516Z,31.80
